Terminal Aerodrome Forecast
Issued by NWS Wilmington, OH

Current Version | Previous Version | Text Only | Print | Product List | Glossary On
Versions: 1 2 3 4 5 6 7 8 9 10 11 12 13 14 15 16 17 18
000 FTUS41 KILN 280500 TAFCMH TAF KCMH 280529Z 2806/2906 01004KT P6SM SCT050 FM280800 VRB03KT P6SM SKC FM281600 03010KT P6SM SCT050 FM290000 04005KT P6SM SKC=

USA.gov is the U.S. government's official web portal to all federal, state and local government web resources and services.